createdAt,value
2022-09-23T00:00:01.582Z,1015.263
2022-09-23T00:07:01.675Z,1015.436
2022-09-23T00:14:01.860Z,1015.436
2022-09-23T00:21:02.187Z,1015.295
2022-09-23T00:28:01.875Z,1015.295
2022-09-23T00:35:01.970Z,1015.246
2022-09-23T00:42:01.496Z,1015.246
2022-09-23T00:49:01.591Z,1015.059
2022-09-23T00:56:01.855Z,1015.059
2022-09-23T01:00:02.414Z,1015.071
2022-09-23T01:07:01.798Z,1015.071
2022-09-23T01:14:02.117Z,1014.968
2022-09-23T01:21:02.350Z,1014.968
2022-09-23T01:28:01.762Z,1014.997
2022-09-23T01:35:01.690Z,1014.997
2022-09-23T01:42:01.615Z,1015.031
2022-09-23T01:49:02.017Z,1014.951
2022-09-23T01:56:01.773Z,1014.951
2022-09-23T02:00:02.358Z,1014.951
2022-09-23T02:07:01.747Z,1014.825
2022-09-23T02:14:01.902Z,1014.825
2022-09-23T02:21:01.599Z,1014.892
2022-09-23T02:28:01.354Z,1014.587
2022-09-23T02:35:02.447Z,1014.587
2022-09-23T02:42:01.370Z,1014.665
2022-09-23T02:49:02.089Z,1014.665
2022-09-23T02:56:02.092Z,1014.541
2022-09-23T03:00:01.731Z,1014.541
2022-09-23T03:07:01.689Z,1014.5
2022-09-23T03:14:01.996Z,1014.5
2022-09-23T03:21:02.320Z,1014.262
2022-09-23T03:28:02.030Z,1014.262
2022-09-23T03:35:02.568Z,1014.173
2022-09-23T03:42:01.653Z,1014.173
2022-09-23T03:49:02.113Z,1014.384
2022-09-23T03:56:01.584Z,1014.384
2022-09-23T04:00:02.219Z,1014.282
2022-09-23T04:07:01.535Z,1014.282
2022-09-23T04:14:02.257Z,1014.209
2022-09-23T04:21:01.928Z,1014.209
2022-09-23T04:28:01.900Z,1014.047
2022-09-23T04:35:01.745Z,1014.047
2022-09-23T04:42:02.186Z,1013.889
2022-09-23T04:49:01.798Z,1013.642
2022-09-23T04:56:01.566Z,1013.642
2022-09-23T05:00:02.138Z,1013.642
2022-09-23T05:07:03.517Z,1013.731
2022-09-23T05:14:01.779Z,1013.731
2022-09-23T05:21:02.055Z,1013.817
2022-09-23T05:28:01.687Z,1013.686
2022-09-23T05:35:02.427Z,1013.686
2022-09-23T05:42:02.311Z,1013.726
2022-09-23T05:49:03.328Z,1013.726
2022-09-23T05:56:02.156Z,1013.875
2022-09-23T06:00:01.771Z,1013.875
2022-09-23T06:07:03.726Z,1014.005
2022-09-23T06:14:01.898Z,1014.005
2022-09-23T06:21:02.228Z,1014.028
2022-09-23T06:28:02.354Z,1014.028
2022-09-23T06:35:01.547Z,1013.905
2022-09-23T06:42:02.141Z,1013.905
2022-09-23T06:49:01.653Z,1013.752
2022-09-23T06:56:01.965Z,1013.752
2022-09-23T07:00:01.691Z,1013.85
2022-09-23T07:07:02.250Z,1013.85
2022-09-23T07:14:01.953Z,1013.915
2022-09-23T07:21:01.935Z,1013.915
2022-09-23T07:28:01.398Z,1013.746
2022-09-23T07:35:02.252Z,1013.746
2022-09-23T07:42:02.277Z,1013.959
2022-09-23T07:49:02.236Z,1013.86
2022-09-23T07:56:01.691Z,1013.86
2022-09-23T08:00:02.305Z,1013.86
2022-09-23T08:07:02.091Z,1013.998
2022-09-23T08:14:02.350Z,1013.998
2022-09-23T08:21:01.926Z,1014
2022-09-23T08:28:01.474Z,1013.958
2022-09-23T08:35:02.107Z,1013.958
2022-09-23T08:42:02.076Z,1013.765
2022-09-23T08:49:01.890Z,1013.765
2022-09-23T08:56:01.984Z,1013.793
2022-09-23T09:00:01.623Z,1013.793
2022-09-23T09:07:18.298Z,1013.791
2022-09-23T09:14:01.597Z,1013.791
2022-09-23T09:21:01.751Z,1013.807
2022-09-23T09:28:01.458Z,1013.807
2022-09-23T09:35:01.713Z,1013.545
2022-09-23T09:42:01.814Z,1013.545
2022-09-23T09:49:01.986Z,1013.629
2022-09-23T09:56:04.892Z,1013.629
2022-09-23T10:00:02.234Z,1013.416
2022-09-23T10:07:01.699Z,1013.416
2022-09-23T10:14:01.306Z,1013.419
2022-09-23T10:21:01.983Z,1013.419
2022-09-23T10:28:05.979Z,1013.358
2022-09-23T10:35:02.015Z,1013.358
2022-09-23T10:42:01.826Z,1013.385
2022-09-23T10:49:02.129Z,1013.266
2022-09-23T10:56:02.089Z,1013.266
2022-09-23T11:00:01.709Z,1013.266
2022-09-23T11:07:01.309Z,1013.09
2022-09-23T11:14:01.848Z,1013.09
2022-09-23T11:21:01.814Z,1013.055
2022-09-23T11:28:01.521Z,1012.895
2022-09-23T11:35:01.916Z,1012.895
2022-09-23T11:42:01.539Z,1012.853
2022-09-23T11:49:01.641Z,1012.853
2022-09-23T11:56:02.157Z,1012.744
2022-09-23T12:00:03.355Z,1012.744
2022-09-23T12:07:01.765Z,1012.634
2022-09-23T12:14:01.670Z,1012.634
2022-09-23T12:21:02.266Z,1012.372
2022-09-23T12:28:01.679Z,1012.372
2022-09-23T12:35:02.144Z,1012.213
2022-09-23T12:42:01.400Z,1012.213
2022-09-23T12:49:01.678Z,1012.156
2022-09-23T12:56:01.380Z,1012.156
2022-09-23T13:00:01.922Z,1012.328
2022-09-23T13:07:02.024Z,1012.328
2022-09-23T13:14:01.470Z,1012.315
2022-09-23T13:21:01.467Z,1012.315
2022-09-23T13:28:02.154Z,1012.107
2022-09-23T13:35:01.735Z,1012.107
2022-09-23T13:42:01.747Z,1012.09
2022-09-23T13:49:02.045Z,1011.922
2022-09-23T13:56:02.198Z,1011.922
2022-09-23T14:00:01.750Z,1011.922
2022-09-23T14:07:01.674Z,1011.895
2022-09-23T14:14:01.603Z,1011.895
2022-09-23T14:21:02.171Z,1011.716
2022-09-23T14:28:01.708Z,1011.544
2022-09-23T14:35:02.248Z,1011.544
2022-09-23T14:42:01.704Z,1011.472
2022-09-23T14:49:01.864Z,1011.472
2022-09-23T14:56:01.794Z,1011.553
2022-09-23T15:00:02.399Z,1011.553
2022-09-23T15:07:02.083Z,1011.307
2022-09-23T15:14:14.174Z,1011.307
2022-09-23T15:21:01.614Z,1010.918
2022-09-23T15:28:01.465Z,1010.918
2022-09-23T15:35:02.498Z,1011.283
2022-09-23T15:42:02.318Z,1011.283
2022-09-23T15:49:01.908Z,1011.062
2022-09-23T15:56:02.342Z,1011.062
2022-09-23T16:00:01.895Z,1011.219
2022-09-23T16:07:01.921Z,1011.219
2022-09-23T16:14:01.794Z,1011.254
2022-09-23T16:21:01.945Z,1011.254
2022-09-23T16:28:01.676Z,1011.336
2022-09-23T16:35:02.403Z,1011.141
2022-09-23T16:42:01.343Z,1011.141
2022-09-23T16:49:01.840Z,1011.134
2022-09-23T16:56:01.488Z,1011.085
2022-09-23T17:00:02.130Z,1011.085
2022-09-23T17:07:02.160Z,1011.166
2022-09-23T17:14:01.395Z,1010.985
2022-09-23T17:21:01.478Z,1011.07
2022-09-23T17:28:01.336Z,1011.07
2022-09-23T17:35:02.146Z,1010.914
2022-09-23T17:42:02.089Z,1010.859
2022-09-23T17:49:01.481Z,1010.859
2022-09-23T17:56:02.227Z,1010.752
2022-09-23T18:00:01.728Z,1011.007
2022-09-23T18:07:02.175Z,1011.007
2022-09-23T18:14:02.219Z,1010.716
2022-09-23T18:21:02.200Z,1010.893
2022-09-23T18:28:01.726Z,1010.893
2022-09-23T18:35:02.133Z,1010.821
2022-09-23T18:42:02.312Z,1010.999
2022-09-23T18:49:01.466Z,1011.01
2022-09-23T18:56:02.277Z,1011.01
2022-09-23T19:00:01.864Z,1011.094
2022-09-23T19:07:01.492Z,1011.154
2022-09-23T19:14:02.230Z,1011.154
2022-09-23T19:21:06.233Z,1010.69
2022-09-23T19:28:02.031Z,1010.752
2022-09-23T19:35:01.571Z,1010.752
2022-09-23T19:42:02.257Z,1011.102
2022-09-23T19:49:02.188Z,1010.922
2022-09-23T19:56:02.292Z,1010.922
2022-09-23T20:00:01.941Z,1010.922
2022-09-23T20:07:01.816Z,1010.757
2022-09-23T20:14:02.134Z,1010.757
2022-09-23T20:21:01.992Z,1010.617
2022-09-23T20:28:02.060Z,1010.668
2022-09-23T20:35:02.464Z,1010.553
2022-09-23T20:42:01.833Z,1010.553
2022-09-23T20:49:02.174Z,1010.787
2022-09-23T20:56:02.322Z,1010.714
2022-09-23T21:00:01.964Z,1010.714
2022-09-23T21:07:01.384Z,1010.714
2022-09-23T21:14:01.988Z,1010.63
2022-09-23T21:21:01.984Z,1010.63
2022-09-23T21:28:01.658Z,1010.58
2022-09-23T21:35:02.241Z,1010.572
2022-09-23T21:42:01.998Z,1010.518
2022-09-23T21:49:01.377Z,1010.518
2022-09-23T21:56:01.370Z,1010.349
2022-09-23T22:00:02.041Z,1010.349
2022-09-23T22:07:01.510Z,1010.615
2022-09-23T22:14:01.698Z,1010.496
2022-09-23T22:21:02.240Z,1010.432
2022-09-23T22:28:01.873Z,1010.432
2022-09-23T22:35:02.286Z,1010.413
2022-09-23T22:42:01.785Z,1010.516
2022-09-23T22:49:02.018Z,1010.516
2022-09-23T22:56:02.014Z,1010.639
2022-09-23T23:00:01.579Z,1010.506
2022-09-23T23:07:02.089Z,1010.506
2022-09-23T23:14:01.705Z,1010.529
2022-09-23T23:21:02.103Z,1010.523
2022-09-23T23:28:01.470Z,1010.5
2022-09-23T23:35:02.313Z,1010.5
2022-09-23T23:42:01.979Z,1010.286
2022-09-23T23:49:02.288Z,1010.173
2022-09-23T23:56:02.045Z,1010.173
